sensor_id;sensor_type;location;lat;lon;timestamp;P1;durP1;ratioP1;P2;durP2;ratioP2
59659;SDS011;45534;52.690;6.268;2024-02-21T00:00:51;5.20;;;3.85;;
59659;SDS011;45534;52.690;6.268;2024-02-21T00:03:17;9.30;;;4.20;;
59659;SDS011;45534;52.690;6.268;2024-02-21T00:05:43;3.75;;;3.45;;
59659;SDS011;45534;52.690;6.268;2024-02-21T00:08:09;4.75;;;3.22;;
59659;SDS011;45534;52.690;6.268;2024-02-21T00:10:35;8.18;;;3.53;;
59659;SDS011;45534;52.690;6.268;2024-02-21T00:13:01;4.15;;;3.67;;
59659;SDS011;45534;52.690;6.268;2024-02-21T00:15:27;2.88;;;2.35;;
59659;SDS011;45534;52.690;6.268;2024-02-21T00:17:52;6.28;;;4.47;;
59659;SDS011;45534;52.690;6.268;2024-02-21T00:20:18;6.25;;;3.40;;
59659;SDS011;45534;52.690;6.268;2024-02-21T00:22:45;6.15;;;5.55;;
59659;SDS011;45534;52.690;6.268;2024-02-21T00:25:11;11.45;;;4.70;;
59659;SDS011;45534;52.690;6.268;2024-02-21T00:27:37;3.20;;;2.65;;
59659;SDS011;45534;52.690;6.268;2024-02-21T00:30:04;10.55;;;4.55;;
59659;SDS011;45534;52.690;6.268;2024-02-21T00:32:30;6.43;;;3.78;;
59659;SDS011;45534;52.690;6.268;2024-02-21T00:34:57;16.00;;;9.07;;
59659;SDS011;45534;52.690;6.268;2024-02-21T00:37:22;15.20;;;5.68;;
59659;SDS011;45534;52.690;6.268;2024-02-21T00:39:48;6.70;;;3.92;;
59659;SDS011;45534;52.690;6.268;2024-02-21T00:42:14;8.40;;;4.32;;
59659;SDS011;45534;52.690;6.268;2024-02-21T00:44:40;7.38;;;2.95;;
59659;SDS011;45534;52.690;6.268;2024-02-21T00:47:05;5.47;;;3.33;;
59659;SDS011;45534;52.690;6.268;2024-02-21T00:49:31;4.72;;;2.55;;
59659;SDS011;45534;52.690;6.268;2024-02-21T00:51:57;8.57;;;3.80;;
59659;SDS011;45534;52.690;6.268;2024-02-21T00:54:22;23.25;;;5.43;;
59659;SDS011;45534;52.690;6.268;2024-02-21T00:56:48;7.43;;;3.60;;
59659;SDS011;45534;52.690;6.268;2024-02-21T00:59:14;12.68;;;2.95;;
59659;SDS011;45534;52.690;6.268;2024-02-21T01:01:39;10.98;;;4.60;;
59659;SDS011;45534;52.690;6.268;2024-02-21T01:04:08;16.75;;;4.78;;
59659;SDS011;45534;52.690;6.268;2024-02-21T01:06:34;7.85;;;4.03;;
59659;SDS011;45534;52.690;6.268;2024-02-21T01:09:00;14.60;;;5.60;;
59659;SDS011;45534;52.690;6.268;2024-02-21T01:11:26;15.27;;;5.80;;
59659;SDS011;45534;52.690;6.268;2024-02-21T01:13:52;5.35;;;3.33;;
59659;SDS011;45534;52.690;6.268;2024-02-21T01:16:18;6.95;;;4.28;;
59659;SDS011;45534;52.690;6.268;2024-02-21T01:18:44;4.90;;;3.97;;
59659;SDS011;45534;52.690;6.268;2024-02-21T01:21:09;5.35;;;2.42;;
59659;SDS011;45534;52.690;6.268;2024-02-21T01:23:35;10.68;;;4.63;;
59659;SDS011;45534;52.690;6.268;2024-02-21T01:26:02;10.85;;;5.18;;
59659;SDS011;45534;52.690;6.268;2024-02-21T01:28:33;6.53;;;3.78;;
59659;SDS011;45534;52.690;6.268;2024-02-21T01:30:59;6.53;;;2.92;;
59659;SDS011;45534;52.690;6.268;2024-02-21T01:33:25;11.57;;;5.72;;
59659;SDS011;45534;52.690;6.268;2024-02-21T01:35:51;18.90;;;6.22;;
59659;SDS011;45534;52.690;6.268;2024-02-21T01:38:17;21.92;;;6.68;;
59659;SDS011;45534;52.690;6.268;2024-02-21T01:40:43;14.30;;;3.83;;
59659;SDS011;45534;52.690;6.268;2024-02-21T01:43:21;11.25;;;4.30;;
59659;SDS011;45534;52.690;6.268;2024-02-21T01:45:49;9.80;;;3.72;;
59659;SDS011;45534;52.690;6.268;2024-02-21T01:48:19;5.10;;;3.25;;
59659;SDS011;45534;52.690;6.268;2024-02-21T01:50:45;13.65;;;4.65;;
59659;SDS011;45534;52.690;6.268;2024-02-21T01:53:12;9.60;;;3.92;;
59659;SDS011;45534;52.690;6.268;2024-02-21T01:55:46;12.07;;;6.60;;
59659;SDS011;45534;52.690;6.268;2024-02-21T01:58:15;8.15;;;5.82;;
59659;SDS011;45534;52.690;6.268;2024-02-21T02:00:42;15.70;;;4.18;;
59659;SDS011;45534;52.690;6.268;2024-02-21T02:03:12;8.50;;;4.57;;
59659;SDS011;45534;52.690;6.268;2024-02-21T02:08:11;15.02;;;5.70;;
59659;SDS011;45534;52.690;6.268;2024-02-21T02:10:43;16.63;;;7.13;;
59659;SDS011;45534;52.690;6.268;2024-02-21T02:13:10;14.82;;;5.32;;
59659;SDS011;45534;52.690;6.268;2024-02-21T02:18:06;10.20;;;4.18;;
59659;SDS011;45534;52.690;6.268;2024-02-21T02:20:32;8.65;;;4.55;;
59659;SDS011;45534;52.690;6.268;2024-02-21T02:22:59;21.08;;;7.95;;
59659;SDS011;45534;52.690;6.268;2024-02-21T02:25:26;16.17;;;9.38;;
59659;SDS011;45534;52.690;6.268;2024-02-21T02:27:51;12.23;;;7.45;;
59659;SDS011;45534;52.690;6.268;2024-02-21T02:30:18;28.15;;;9.60;;
59659;SDS011;45534;52.690;6.268;2024-02-21T02:32:44;11.30;;;5.63;;
59659;SDS011;45534;52.690;6.268;2024-02-21T02:35:11;13.05;;;4.68;;
59659;SDS011;45534;52.690;6.268;2024-02-21T02:37:37;4.85;;;3.95;;
59659;SDS011;45534;52.690;6.268;2024-02-21T02:40:04;17.08;;;5.82;;
59659;SDS011;45534;52.690;6.268;2024-02-21T02:42:33;33.30;;;9.25;;
59659;SDS011;45534;52.690;6.268;2024-02-21T02:44:59;10.95;;;6.10;;
59659;SDS011;45534;52.690;6.268;2024-02-21T02:47:24;20.45;;;5.53;;
59659;SDS011;45534;52.690;6.268;2024-02-21T02:49:50;21.42;;;6.50;;
59659;SDS011;45534;52.690;6.268;2024-02-21T02:52:16;15.07;;;6.20;;
59659;SDS011;45534;52.690;6.268;2024-02-21T02:54:44;10.07;;;3.42;;
59659;SDS011;45534;52.690;6.268;2024-02-21T02:57:10;9.32;;;4.80;;
59659;SDS011;45534;52.690;6.268;2024-02-21T02:59:36;11.13;;;4.70;;
59659;SDS011;45534;52.690;6.268;2024-02-21T03:02:02;7.70;;;3.13;;
59659;SDS011;45534;52.690;6.268;2024-02-21T03:04:27;6.18;;;3.22;;
59659;SDS011;45534;52.690;6.268;2024-02-21T03:06:53;12.00;;;4.50;;
59659;SDS011;45534;52.690;6.268;2024-02-21T03:09:19;22.08;;;6.22;;
59659;SDS011;45534;52.690;6.268;2024-02-21T03:11:44;8.52;;;6.88;;
59659;SDS011;45534;52.690;6.268;2024-02-21T03:14:10;7.38;;;3.38;;
59659;SDS011;45534;52.690;6.268;2024-02-21T03:16:36;5.80;;;2.85;;
59659;SDS011;45534;52.690;6.268;2024-02-21T03:19:02;6.80;;;3.13;;
59659;SDS011;45534;52.690;6.268;2024-02-21T03:21:28;11.93;;;6.28;;
59659;SDS011;45534;52.690;6.268;2024-02-21T03:23:54;10.48;;;4.47;;
59659;SDS011;45534;52.690;6.268;2024-02-21T03:26:19;10.98;;;5.57;;
59659;SDS011;45534;52.690;6.268;2024-02-21T03:28:45;10.30;;;3.45;;
59659;SDS011;45534;52.690;6.268;2024-02-21T03:31:11;10.23;;;3.72;;
59659;SDS011;45534;52.690;6.268;2024-02-21T03:33:41;21.65;;;5.13;;
59659;SDS011;45534;52.690;6.268;2024-02-21T03:36:12;8.40;;;2.53;;
59659;SDS011;45534;52.690;6.268;2024-02-21T03:38:39;16.45;;;5.10;;
59659;SDS011;45534;52.690;6.268;2024-02-21T03:41:05;6.78;;;5.43;;
59659;SDS011;45534;52.690;6.268;2024-02-21T03:43:30;31.23;;;4.80;;
59659;SDS011;45534;52.690;6.268;2024-02-21T03:45:56;7.32;;;3.35;;
59659;SDS011;45534;52.690;6.268;2024-02-21T03:48:22;10.10;;;4.70;;
59659;SDS011;45534;52.690;6.268;2024-02-21T03:50:47;12.65;;;4.70;;
59659;SDS011;45534;52.690;6.268;2024-02-21T03:53:13;19.38;;;6.80;;
59659;SDS011;45534;52.690;6.268;2024-02-21T03:55:39;21.13;;;5.80;;
59659;SDS011;45534;52.690;6.268;2024-02-21T03:58:04;27.27;;;7.78;;
59659;SDS011;45534;52.690;6.268;2024-02-21T04:00:30;12.98;;;5.18;;
59659;SDS011;45534;52.690;6.268;2024-02-21T04:02:56;11.07;;;6.45;;
59659;SDS011;45534;52.690;6.268;2024-02-21T04:05:21;15.85;;;5.68;;
59659;SDS011;45534;52.690;6.268;2024-02-21T04:07:47;24.52;;;9.52;;
59659;SDS011;45534;52.690;6.268;2024-02-21T04:10:13;12.60;;;5.60;;
59659;SDS011;45534;52.690;6.268;2024-02-21T04:12:38;14.20;;;6.57;;
59659;SDS011;45534;52.690;6.268;2024-02-21T04:15:04;15.40;;;6.47;;
59659;SDS011;45534;52.690;6.268;2024-02-21T04:17:31;12.93;;;5.60;;
59659;SDS011;45534;52.690;6.268;2024-02-21T04:20:01;17.67;;;6.43;;
59659;SDS011;45534;52.690;6.268;2024-02-21T04:22:30;23.48;;;9.05;;
59659;SDS011;45534;52.690;6.268;2024-02-21T04:24:59;18.65;;;6.57;;
59659;SDS011;45534;52.690;6.268;2024-02-21T04:27:25;12.60;;;4.50;;
59659;SDS011;45534;52.690;6.268;2024-02-21T04:29:51;21.67;;;6.45;;
59659;SDS011;45534;52.690;6.268;2024-02-21T04:32:18;10.13;;;3.90;;
59659;SDS011;45534;52.690;6.268;2024-02-21T04:34:43;19.80;;;6.78;;
59659;SDS011;45534;52.690;6.268;2024-02-21T04:37:09;9.80;;;5.55;;
59659;SDS011;45534;52.690;6.268;2024-02-21T04:39:35;17.23;;;5.97;;
59659;SDS011;45534;52.690;6.268;2024-02-21T04:42:01;21.60;;;8.73;;
59659;SDS011;45534;52.690;6.268;2024-02-21T04:44:26;9.93;;;5.07;;
59659;SDS011;45534;52.690;6.268;2024-02-21T04:46:52;19.05;;;9.45;;
59659;SDS011;45534;52.690;6.268;2024-02-21T04:49:18;9.30;;;5.93;;
59659;SDS011;45534;52.690;6.268;2024-02-21T04:51:43;29.80;;;8.63;;
59659;SDS011;45534;52.690;6.268;2024-02-21T04:54:09;19.63;;;7.18;;
59659;SDS011;45534;52.690;6.268;2024-02-21T04:56:35;19.33;;;8.88;;
59659;SDS011;45534;52.690;6.268;2024-02-21T04:59:00;27.45;;;6.97;;
59659;SDS011;45534;52.690;6.268;2024-02-21T05:01:27;12.95;;;4.82;;
59659;SDS011;45534;52.690;6.268;2024-02-21T05:03:53;11.02;;;5.68;;
59659;SDS011;45534;52.690;6.268;2024-02-21T05:06:19;13.57;;;7.57;;
59659;SDS011;45534;52.690;6.268;2024-02-21T05:08:44;14.55;;;8.15;;
59659;SDS011;45534;52.690;6.268;2024-02-21T05:11:10;8.40;;;6.13;;
59659;SDS011;45534;52.690;6.268;2024-02-21T05:13:36;15.77;;;5.65;;
59659;SDS011;45534;52.690;6.268;2024-02-21T05:16:01;20.13;;;5.47;;
59659;SDS011;45534;52.690;6.268;2024-02-21T05:18:28;19.40;;;7.68;;
59659;SDS011;45534;52.690;6.268;2024-02-21T05:20:53;7.90;;;4.55;;
59659;SDS011;45534;52.690;6.268;2024-02-21T05:23:19;13.15;;;6.65;;
59659;SDS011;45534;52.690;6.268;2024-02-21T05:25:45;38.92;;;5.65;;
59659;SDS011;45534;52.690;6.268;2024-02-21T05:28:10;18.65;;;5.85;;
59659;SDS011;45534;52.690;6.268;2024-02-21T05:30:36;13.15;;;5.60;;
59659;SDS011;45534;52.690;6.268;2024-02-21T05:33:05;31.15;;;7.38;;
59659;SDS011;45534;52.690;6.268;2024-02-21T05:35:31;19.67;;;6.28;;
59659;SDS011;45534;52.690;6.268;2024-02-21T05:37:57;22.73;;;10.55;;
59659;SDS011;45534;52.690;6.268;2024-02-21T05:40:22;8.38;;;3.20;;
59659;SDS011;45534;52.690;6.268;2024-02-21T05:42:48;13.68;;;6.45;;
59659;SDS011;45534;52.690;6.268;2024-02-21T05:45:16;16.60;;;7.78;;
59659;SDS011;45534;52.690;6.268;2024-02-21T05:47:41;12.00;;;5.25;;
59659;SDS011;45534;52.690;6.268;2024-02-21T05:50:07;26.08;;;9.68;;
59659;SDS011;45534;52.690;6.268;2024-02-21T05:52:33;13.52;;;5.10;;
59659;SDS011;45534;52.690;6.268;2024-02-21T05:54:59;7.95;;;5.10;;
59659;SDS011;45534;52.690;6.268;2024-02-21T05:57:25;10.73;;;5.72;;
59659;SDS011;45534;52.690;6.268;2024-02-21T05:59:53;19.00;;;6.72;;
59659;SDS011;45534;52.690;6.268;2024-02-21T06:02:19;36.03;;;8.38;;
59659;SDS011;45534;52.690;6.268;2024-02-21T06:04:45;22.40;;;11.98;;
59659;SDS011;45534;52.690;6.268;2024-02-21T06:07:11;26.65;;;8.93;;
59659;SDS011;45534;52.690;6.268;2024-02-21T06:09:37;10.13;;;4.55;;
59659;SDS011;45534;52.690;6.268;2024-02-21T06:12:03;10.23;;;6.15;;
59659;SDS011;45534;52.690;6.268;2024-02-21T06:14:28;25.77;;;5.65;;
59659;SDS011;45534;52.690;6.268;2024-02-21T06:16:54;7.70;;;5.57;;
59659;SDS011;45534;52.690;6.268;2024-02-21T06:19:20;10.35;;;6.55;;
59659;SDS011;45534;52.690;6.268;2024-02-21T06:21:45;21.33;;;10.02;;
59659;SDS011;45534;52.690;6.268;2024-02-21T06:24:11;6.82;;;5.78;;
59659;SDS011;45534;52.690;6.268;2024-02-21T06:26:37;18.67;;;7.40;;
59659;SDS011;45534;52.690;6.268;2024-02-21T06:29:05;21.38;;;8.02;;
59659;SDS011;45534;52.690;6.268;2024-02-21T06:31:31;11.82;;;6.75;;
59659;SDS011;45534;52.690;6.268;2024-02-21T06:33:57;11.18;;;5.82;;
59659;SDS011;45534;52.690;6.268;2024-02-21T06:36:22;18.90;;;8.85;;
59659;SDS011;45534;52.690;6.268;2024-02-21T06:38:48;15.23;;;8.05;;
59659;SDS011;45534;52.690;6.268;2024-02-21T06:41:17;15.38;;;8.50;;
59659;SDS011;45534;52.690;6.268;2024-02-21T06:43:47;18.70;;;9.85;;
59659;SDS011;45534;52.690;6.268;2024-02-21T06:46:26;20.42;;;10.48;;
59659;SDS011;45534;52.690;6.268;2024-02-21T06:48:53;17.95;;;9.27;;
59659;SDS011;45534;52.690;6.268;2024-02-21T06:51:21;17.05;;;6.82;;
59659;SDS011;45534;52.690;6.268;2024-02-21T06:53:47;16.45;;;9.00;;
59659;SDS011;45534;52.690;6.268;2024-02-21T06:56:13;17.17;;;11.40;;
59659;SDS011;45534;52.690;6.268;2024-02-21T06:58:39;17.15;;;7.57;;
59659;SDS011;45534;52.690;6.268;2024-02-21T07:01:05;13.13;;;7.75;;
59659;SDS011;45534;52.690;6.268;2024-02-21T07:03:31;16.33;;;8.18;;
59659;SDS011;45534;52.690;6.268;2024-02-21T07:05:56;11.00;;;7.43;;
59659;SDS011;45534;52.690;6.268;2024-02-21T07:08:22;13.45;;;7.13;;
59659;SDS011;45534;52.690;6.268;2024-02-21T07:10:48;13.27;;;8.48;;
59659;SDS011;45534;52.690;6.268;2024-02-21T07:13:13;26.00;;;10.50;;
59659;SDS011;45534;52.690;6.268;2024-02-21T07:15:40;14.05;;;8.25;;
59659;SDS011;45534;52.690;6.268;2024-02-21T07:18:06;12.35;;;7.35;;
59659;SDS011;45534;52.690;6.268;2024-02-21T07:20:32;20.10;;;12.20;;
59659;SDS011;45534;52.690;6.268;2024-02-21T07:22:59;16.25;;;9.55;;
59659;SDS011;45534;52.690;6.268;2024-02-21T07:25:24;27.02;;;12.07;;
59659;SDS011;45534;52.690;6.268;2024-02-21T07:27:50;16.98;;;7.95;;
59659;SDS011;45534;52.690;6.268;2024-02-21T07:30:16;18.42;;;9.32;;
59659;SDS011;45534;52.690;6.268;2024-02-21T07:32:42;20.85;;;9.65;;
59659;SDS011;45534;52.690;6.268;2024-02-21T07:35:07;17.27;;;9.95;;
59659;SDS011;45534;52.690;6.268;2024-02-21T07:37:37;14.10;;;7.97;;
59659;SDS011;45534;52.690;6.268;2024-02-21T07:40:06;12.52;;;7.20;;
59659;SDS011;45534;52.690;6.268;2024-02-21T07:42:37;16.05;;;9.13;;
59659;SDS011;45534;52.690;6.268;2024-02-21T07:45:03;21.80;;;9.40;;
59659;SDS011;45534;52.690;6.268;2024-02-21T07:47:29;11.60;;;7.88;;
59659;SDS011;45534;52.690;6.268;2024-02-21T07:49:55;17.67;;;9.07;;
59659;SDS011;45534;52.690;6.268;2024-02-21T07:52:20;15.27;;;9.38;;
59659;SDS011;45534;52.690;6.268;2024-02-21T07:54:46;14.30;;;10.27;;
59659;SDS011;45534;52.690;6.268;2024-02-21T07:57:12;15.85;;;9.60;;
59659;SDS011;45534;52.690;6.268;2024-02-21T07:59:37;18.88;;;11.65;;
59659;SDS011;45534;52.690;6.268;2024-02-21T08:02:03;16.75;;;9.07;;
59659;SDS011;45534;52.690;6.268;2024-02-21T08:04:31;12.93;;;8.25;;
59659;SDS011;45534;52.690;6.268;2024-02-21T08:06:57;15.48;;;10.07;;
59659;SDS011;45534;52.690;6.268;2024-02-21T08:09:26;14.82;;;8.48;;
59659;SDS011;45534;52.690;6.268;2024-02-21T08:11:53;19.55;;;10.60;;
59659;SDS011;45534;52.690;6.268;2024-02-21T08:14:20;12.52;;;10.82;;
59659;SDS011;45534;52.690;6.268;2024-02-21T08:16:46;18.58;;;12.35;;
59659;SDS011;45534;52.690;6.268;2024-02-21T08:19:12;33.45;;;15.80;;
59659;SDS011;45534;52.690;6.268;2024-02-21T08:21:38;12.38;;;8.57;;
59659;SDS011;45534;52.690;6.268;2024-02-21T08:24:04;23.27;;;14.35;;
59659;SDS011;45534;52.690;6.268;2024-02-21T08:26:30;17.90;;;12.00;;
59659;SDS011;45534;52.690;6.268;2024-02-21T08:28:59;14.10;;;8.65;;
59659;SDS011;45534;52.690;6.268;2024-02-21T08:31:25;24.05;;;12.35;;
59659;SDS011;45534;52.690;6.268;2024-02-21T08:34:05;23.65;;;14.30;;
59659;SDS011;45534;52.690;6.268;2024-02-21T08:36:31;18.85;;;13.07;;
59659;SDS011;45534;52.690;6.268;2024-02-21T08:38:58;25.67;;;15.00;;
59659;SDS011;45534;52.690;6.268;2024-02-21T08:41:25;19.33;;;12.65;;
59659;SDS011;45534;52.690;6.268;2024-02-21T08:43:51;27.13;;;10.52;;
59659;SDS011;45534;52.690;6.268;2024-02-21T08:46:19;24.52;;;15.65;;
59659;SDS011;45534;52.690;6.268;2024-02-21T08:48:46;30.02;;;14.70;;
59659;SDS011;45534;52.690;6.268;2024-02-21T08:51:11;14.27;;;11.75;;
59659;SDS011;45534;52.690;6.268;2024-02-21T08:53:38;18.42;;;14.18;;
59659;SDS011;45534;52.690;6.268;2024-02-21T08:56:03;19.85;;;14.15;;
59659;SDS011;45534;52.690;6.268;2024-02-21T08:58:30;25.15;;;16.20;;
59659;SDS011;45534;52.690;6.268;2024-02-21T09:00:56;20.15;;;12.20;;
59659;SDS011;45534;52.690;6.268;2024-02-21T09:03:22;18.77;;;10.60;;
59659;SDS011;45534;52.690;6.268;2024-02-21T09:05:48;21.15;;;14.07;;
59659;SDS011;45534;52.690;6.268;2024-02-21T09:08:14;15.85;;;9.23;;
59659;SDS011;45534;52.690;6.268;2024-02-21T09:10:39;23.63;;;15.35;;
59659;SDS011;45534;52.690;6.268;2024-02-21T09:13:05;28.83;;;13.30;;
59659;SDS011;45534;52.690;6.268;2024-02-21T09:15:33;18.58;;;14.90;;
59659;SDS011;45534;52.690;6.268;2024-02-21T09:17:58;16.63;;;11.65;;
59659;SDS011;45534;52.690;6.268;2024-02-21T09:20:24;25.08;;;13.32;;
59659;SDS011;45534;52.690;6.268;2024-02-21T09:22:50;27.25;;;15.38;;
59659;SDS011;45534;52.690;6.268;2024-02-21T09:25:17;23.10;;;11.25;;
59659;SDS011;45534;52.690;6.268;2024-02-21T09:27:43;18.15;;;10.00;;
59659;SDS011;45534;52.690;6.268;2024-02-21T09:30:10;21.02;;;12.63;;
59659;SDS011;45534;52.690;6.268;2024-02-21T09:32:36;22.13;;;10.75;;
59659;SDS011;45534;52.690;6.268;2024-02-21T09:35:02;24.48;;;12.93;;
59659;SDS011;45534;52.690;6.268;2024-02-21T09:37:28;21.48;;;11.95;;
59659;SDS011;45534;52.690;6.268;2024-02-21T09:39:54;28.80;;;15.10;;
59659;SDS011;45534;52.690;6.268;2024-02-21T09:42:20;21.52;;;12.48;;
59659;SDS011;45534;52.690;6.268;2024-02-21T09:44:49;20.77;;;13.25;;
59659;SDS011;45534;52.690;6.268;2024-02-21T09:47:30;15.32;;;10.13;;
59659;SDS011;45534;52.690;6.268;2024-02-21T09:50:05;22.10;;;9.10;;
59659;SDS011;45534;52.690;6.268;2024-02-21T09:52:32;12.43;;;9.43;;
59659;SDS011;45534;52.690;6.268;2024-02-21T09:55:00;19.83;;;13.60;;
59659;SDS011;45534;52.690;6.268;2024-02-21T09:57:26;12.20;;;8.40;;
59659;SDS011;45534;52.690;6.268;2024-02-21T09:59:53;22.27;;;11.25;;
59659;SDS011;45534;52.690;6.268;2024-02-21T10:02:21;27.83;;;14.20;;
59659;SDS011;45534;52.690;6.268;2024-02-21T10:04:47;18.45;;;9.43;;
59659;SDS011;45534;52.690;6.268;2024-02-21T10:07:13;13.38;;;9.60;;
59659;SDS011;45534;52.690;6.268;2024-02-21T10:09:38;17.13;;;9.85;;
59659;SDS011;45534;52.690;6.268;2024-02-21T10:12:11;20.80;;;10.55;;
59659;SDS011;45534;52.690;6.268;2024-02-21T10:14:37;26.33;;;12.90;;
59659;SDS011;45534;52.690;6.268;2024-02-21T10:17:03;15.00;;;8.80;;
59659;SDS011;45534;52.690;6.268;2024-02-21T10:19:34;17.92;;;11.50;;
59659;SDS011;45534;52.690;6.268;2024-02-21T10:22:04;18.73;;;13.68;;
59659;SDS011;45534;52.690;6.268;2024-02-21T10:24:32;15.00;;;8.13;;
59659;SDS011;45534;52.690;6.268;2024-02-21T10:27:08;17.85;;;12.07;;
59659;SDS011;45534;52.690;6.268;2024-02-21T10:29:36;11.60;;;7.63;;
59659;SDS011;45534;52.690;6.268;2024-02-21T10:32:09;21.40;;;9.82;;
59659;SDS011;45534;52.690;6.268;2024-02-21T10:34:40;11.65;;;8.27;;
59659;SDS011;45534;52.690;6.268;2024-02-21T10:37:07;17.15;;;11.00;;
59659;SDS011;45534;52.690;6.268;2024-02-21T10:39:40;14.52;;;9.65;;
59659;SDS011;45534;52.690;6.268;2024-02-21T10:42:06;9.13;;;6.82;;
59659;SDS011;45534;52.690;6.268;2024-02-21T10:44:38;30.95;;;10.35;;
59659;SDS011;45534;52.690;6.268;2024-02-21T10:47:07;12.57;;;7.75;;
59659;SDS011;45534;52.690;6.268;2024-02-21T10:49:35;20.38;;;10.50;;
59659;SDS011;45534;52.690;6.268;2024-02-21T10:54:45;14.88;;;7.00;;
59659;SDS011;45534;52.690;6.268;2024-02-21T10:57:21;12.93;;;10.70;;
59659;SDS011;45534;52.690;6.268;2024-02-21T10:59:48;14.18;;;7.78;;
59659;SDS011;45534;52.690;6.268;2024-02-21T11:02:15;12.25;;;7.25;;
59659;SDS011;45534;52.690;6.268;2024-02-21T11:04:41;14.77;;;7.70;;
59659;SDS011;45534;52.690;6.268;2024-02-21T11:07:08;31.70;;;12.50;;
59659;SDS011;45534;52.690;6.268;2024-02-21T11:09:34;11.80;;;6.55;;
59659;SDS011;45534;52.690;6.268;2024-02-21T11:12:08;20.42;;;10.10;;
59659;SDS011;45534;52.690;6.268;2024-02-21T11:14:37;15.15;;;8.00;;
59659;SDS011;45534;52.690;6.268;2024-02-21T11:17:20;22.15;;;8.50;;
59659;SDS011;45534;52.690;6.268;2024-02-21T11:19:47;11.05;;;8.65;;
59659;SDS011;45534;52.690;6.268;2024-02-21T11:22:16;15.00;;;8.80;;
59659;SDS011;45534;52.690;6.268;2024-02-21T11:24:43;13.88;;;8.48;;
59659;SDS011;45534;52.690;6.268;2024-02-21T11:27:09;8.65;;;6.03;;
59659;SDS011;45534;52.690;6.268;2024-02-21T11:32:15;15.38;;;9.52;;
59659;SDS011;45534;52.690;6.268;2024-02-21T11:34:52;13.18;;;7.78;;
59659;SDS011;45534;52.690;6.268;2024-02-21T11:37:26;12.48;;;7.63;;
59659;SDS011;45534;52.690;6.268;2024-02-21T11:39:53;11.25;;;6.22;;
59659;SDS011;45534;52.690;6.268;2024-02-21T11:42:22;23.85;;;9.70;;
59659;SDS011;45534;52.690;6.268;2024-02-21T11:44:50;14.27;;;6.57;;
59659;SDS011;45534;52.690;6.268;2024-02-21T11:47:15;13.80;;;8.27;;
59659;SDS011;45534;52.690;6.268;2024-02-21T11:49:46;9.85;;;7.20;;
59659;SDS011;45534;52.690;6.268;2024-02-21T11:52:15;12.07;;;4.93;;
59659;SDS011;45534;52.690;6.268;2024-02-21T11:54:41;10.13;;;7.50;;
59659;SDS011;45534;52.690;6.268;2024-02-21T11:57:07;9.55;;;6.30;;
59659;SDS011;45534;52.690;6.268;2024-02-21T11:59:33;11.57;;;6.78;;
59659;SDS011;45534;52.690;6.268;2024-02-21T12:02:00;10.35;;;6.93;;
59659;SDS011;45534;52.690;6.268;2024-02-21T12:04:26;9.13;;;6.57;;
59659;SDS011;45534;52.690;6.268;2024-02-21T12:06:55;9.95;;;5.55;;
59659;SDS011;45534;52.690;6.268;2024-02-21T12:09:22;16.55;;;5.80;;
59659;SDS011;45534;52.690;6.268;2024-02-21T12:11:59;8.40;;;6.43;;
59659;SDS011;45534;52.690;6.268;2024-02-21T12:14:27;10.52;;;5.45;;
59659;SDS011;45534;52.690;6.268;2024-02-21T12:16:54;9.77;;;7.22;;
59659;SDS011;45534;52.690;6.268;2024-02-21T12:19:20;13.65;;;7.65;;
59659;SDS011;45534;52.690;6.268;2024-02-21T12:21:47;8.93;;;6.25;;
59659;SDS011;45534;52.690;6.268;2024-02-21T12:24:21;10.32;;;6.88;;
59659;SDS011;45534;52.690;6.268;2024-02-21T12:26:48;10.35;;;7.07;;
59659;SDS011;45534;52.690;6.268;2024-02-21T12:29:14;9.38;;;7.30;;
59659;SDS011;45534;52.690;6.268;2024-02-21T12:31:40;10.20;;;6.28;;
59659;SDS011;45534;52.690;6.268;2024-02-21T12:34:06;7.07;;;4.47;;
59659;SDS011;45534;52.690;6.268;2024-02-21T12:36:35;8.38;;;3.58;;
59659;SDS011;45534;52.690;6.268;2024-02-21T12:39:06;6.57;;;5.53;;
59659;SDS011;45534;52.690;6.268;2024-02-21T12:41:33;6.53;;;4.50;;
59659;SDS011;45534;52.690;6.268;2024-02-21T12:44:00;7.15;;;4.80;;
59659;SDS011;45534;52.690;6.268;2024-02-21T12:46:26;7.55;;;5.70;;
59659;SDS011;45534;52.690;6.268;2024-02-21T12:48:51;10.27;;;5.60;;
59659;SDS011;45534;52.690;6.268;2024-02-21T12:51:17;5.53;;;3.97;;
59659;SDS011;45534;52.690;6.268;2024-02-21T12:53:46;10.57;;;4.68;;
59659;SDS011;45534;52.690;6.268;2024-02-21T12:56:14;18.35;;;6.07;;
59659;SDS011;45534;52.690;6.268;2024-02-21T12:58:40;7.93;;;5.55;;
59659;SDS011;45534;52.690;6.268;2024-02-21T13:01:06;7.32;;;4.97;;
59659;SDS011;45534;52.690;6.268;2024-02-21T13:03:32;6.95;;;4.55;;
59659;SDS011;45534;52.690;6.268;2024-02-21T13:05:58;9.20;;;5.35;;
59659;SDS011;45534;52.690;6.268;2024-02-21T13:08:24;10.15;;;5.32;;
59659;SDS011;45534;52.690;6.268;2024-02-21T13:10:50;12.95;;;5.93;;
59659;SDS011;45534;52.690;6.268;2024-02-21T13:13:16;8.15;;;5.40;;
59659;SDS011;45534;52.690;6.268;2024-02-21T13:15:41;8.93;;;6.15;;
59659;SDS011;45534;52.690;6.268;2024-02-21T13:18:08;8.60;;;5.80;;
59659;SDS011;45534;52.690;6.268;2024-02-21T13:20:35;18.30;;;7.38;;
59659;SDS011;45534;52.690;6.268;2024-02-21T13:23:01;8.15;;;5.07;;
59659;SDS011;45534;52.690;6.268;2024-02-21T13:25:27;8.98;;;5.25;;
59659;SDS011;45534;52.690;6.268;2024-02-21T13:27:53;9.80;;;5.30;;
59659;SDS011;45534;52.690;6.268;2024-02-21T13:30:19;8.95;;;6.10;;
59659;SDS011;45534;52.690;6.268;2024-02-21T13:32:44;9.93;;;4.28;;
59659;SDS011;45534;52.690;6.268;2024-02-21T13:35:13;16.50;;;6.65;;
59659;SDS011;45534;52.690;6.268;2024-02-21T13:37:40;8.88;;;5.57;;
59659;SDS011;45534;52.690;6.268;2024-02-21T13:40:07;12.05;;;7.03;;
59659;SDS011;45534;52.690;6.268;2024-02-21T13:42:36;10.10;;;7.32;;
59659;SDS011;45534;52.690;6.268;2024-02-21T13:45:03;10.38;;;5.82;;
59659;SDS011;45534;52.690;6.268;2024-02-21T13:47:30;8.77;;;5.63;;
59659;SDS011;45534;52.690;6.268;2024-02-21T13:49:56;10.05;;;5.40;;
59659;SDS011;45534;52.690;6.268;2024-02-21T13:52:22;9.48;;;5.68;;
59659;SDS011;45534;52.690;6.268;2024-02-21T13:54:51;13.52;;;6.90;;
59659;SDS011;45534;52.690;6.268;2024-02-21T13:57:19;8.10;;;4.43;;
59659;SDS011;45534;52.690;6.268;2024-02-21T13:59:45;11.80;;;6.75;;
59659;SDS011;45534;52.690;6.268;2024-02-21T14:02:10;8.20;;;5.45;;
59659;SDS011;45534;52.690;6.268;2024-02-21T14:04:37;11.82;;;7.00;;
59659;SDS011;45534;52.690;6.268;2024-02-21T14:07:02;11.05;;;7.93;;
59659;SDS011;45534;52.690;6.268;2024-02-21T14:09:28;18.25;;;6.45;;
59659;SDS011;45534;52.690;6.268;2024-02-21T14:11:54;8.95;;;6.60;;
59659;SDS011;45534;52.690;6.268;2024-02-21T14:14:20;12.43;;;6.18;;
59659;SDS011;45534;52.690;6.268;2024-02-21T14:16:46;15.23;;;6.40;;
59659;SDS011;45534;52.690;6.268;2024-02-21T14:19:13;8.80;;;5.65;;
59659;SDS011;45534;52.690;6.268;2024-02-21T14:21:39;12.30;;;8.18;;
59659;SDS011;45534;52.690;6.268;2024-02-21T14:24:05;13.95;;;6.47;;
59659;SDS011;45534;52.690;6.268;2024-02-21T14:26:32;9.50;;;5.45;;
59659;SDS011;45534;52.690;6.268;2024-02-21T14:28:58;10.85;;;7.25;;
59659;SDS011;45534;52.690;6.268;2024-02-21T14:31:24;6.55;;;5.35;;
59659;SDS011;45534;52.690;6.268;2024-02-21T14:33:50;17.10;;;8.85;;
59659;SDS011;45534;52.690;6.268;2024-02-21T14:36:17;16.02;;;5.43;;
59659;SDS011;45534;52.690;6.268;2024-02-21T14:38:43;13.90;;;6.65;;
59659;SDS011;45534;52.690;6.268;2024-02-21T14:41:09;9.57;;;6.88;;
59659;SDS011;45534;52.690;6.268;2024-02-21T14:43:38;6.75;;;5.68;;